sim
Sign-in with your pilot id or email,
or register
Callsign
Passwort

Schedule Details

Flight Number: OEC1234
Departure: Hamburg Airport (EDDH) at Time
Arrival: Munich Airport (EDDM) at Time
Route: eddh basum eddm

Weather Information
Getting current METAR information for EDDH 211920Z 07003KT 290V080 CAVOK 13/10 Q1015 NOSIG
Getting current METAR information for EDDM 211920Z 34001KT CAVOK 13/12 Q1016 NOSIG

Schedule Frequency

Route Map